RJSC/GAJ METAR and TAF weather

Enter ICAO airport designator
Station Type Date Time Source
RJSC METAR 2019/04/22 10:00 UTC NOAA

RJSC 221000Z 02005KT CAVOK 12/00 Q1017


Station Type Date Time Source
RJSC Decoded METAR 2019/04/22 10:00 UTC NOAA

Yamagata Airport, Japan (RJSC) 38-25N 140-22E 108M
Apr 22, 2019 - 06:00 AM EDT / 2019.04.22 1000 UTC
Wind: from the NNE (020 degrees) at 6 MPH (5 KT):0
Visibility: greater than 7 mile(s):0
Temperature: 53 F (12 C)
Dew Point: 32 F (0 C)
Relative Humidity: 43%
Pressure (altimeter): 30.03 in. Hg (1017 hPa)
ob: RJSC 221000Z 02005KT CAVOK 12/00 Q1017
cycle: 10

Station Type Date Time Source
RJSC TAF UTC NOAA

Error!

Example: see airport list